sensor_id;sensor_type;location;lat;lon;timestamp;P1;durP1;ratioP1;P2;durP2;ratioP2
3747;SDS011;1889;50.058;8.688;2022-09-27T00:02:03;0.55;;;0.55;;
3747;SDS011;1889;50.058;8.688;2022-09-27T00:04:32;0.62;;;0.50;;
3747;SDS011;1889;50.058;8.688;2022-09-27T00:07:01;0.50;;;0.50;;
3747;SDS011;1889;50.058;8.688;2022-09-27T00:09:30;0.47;;;0.47;;
3747;SDS011;1889;50.058;8.688;2022-09-27T00:12:00;0.75;;;0.60;;
3747;SDS011;1889;50.058;8.688;2022-09-27T00:14:29;0.72;;;0.72;;
3747;SDS011;1889;50.058;8.688;2022-09-27T00:16:58;0.68;;;0.62;;
3747;SDS011;1889;50.058;8.688;2022-09-27T00:19:28;0.68;;;0.68;;
3747;SDS011;1889;50.058;8.688;2022-09-27T00:21:57;1.17;;;0.68;;
3747;SDS011;1889;50.058;8.688;2022-09-27T00:24:27;0.68;;;0.68;;
3747;SDS011;1889;50.058;8.688;2022-09-27T00:26:57;0.50;;;0.50;;
3747;SDS011;1889;50.058;8.688;2022-09-27T00:29:27;0.50;;;0.50;;
3747;SDS011;1889;50.058;8.688;2022-09-27T00:31:56;0.50;;;0.50;;
3747;SDS011;1889;50.058;8.688;2022-09-27T00:34:25;0.62;;;0.60;;
3747;SDS011;1889;50.058;8.688;2022-09-27T00:36:55;0.50;;;0.50;;
3747;SDS011;1889;50.058;8.688;2022-09-27T00:39:24;0.98;;;0.70;;
3747;SDS011;1889;50.058;8.688;2022-09-27T00:41:54;0.60;;;0.60;;
3747;SDS011;1889;50.058;8.688;2022-09-27T00:47:05;0.57;;;0.57;;
3747;SDS011;1889;50.058;8.688;2022-09-27T00:49:36;0.90;;;0.90;;
3747;SDS011;1889;50.058;8.688;2022-09-27T00:52:10;0.50;;;0.40;;
3747;SDS011;1889;50.058;8.688;2022-09-27T00:54:40;0.55;;;0.55;;
3747;SDS011;1889;50.058;8.688;2022-09-27T00:57:12;0.60;;;0.55;;
3747;SDS011;1889;50.058;8.688;2022-09-27T00:59:45;0.72;;;0.72;;
3747;SDS011;1889;50.058;8.688;2022-09-27T01:02:16;0.82;;;0.75;;
3747;SDS011;1889;50.058;8.688;2022-09-27T01:04:46;0.45;;;0.42;;
3747;SDS011;1889;50.058;8.688;2022-09-27T01:07:16;0.45;;;0.45;;
3747;SDS011;1889;50.058;8.688;2022-09-27T01:09:46;0.50;;;0.50;;
3747;SDS011;1889;50.058;8.688;2022-09-27T01:12:21;0.80;;;0.80;;
3747;SDS011;1889;50.058;8.688;2022-09-27T01:15:17;0.62;;;0.45;;
3747;SDS011;1889;50.058;8.688;2022-09-27T01:17:56;0.65;;;0.55;;
3747;SDS011;1889;50.058;8.688;2022-09-27T01:24:01;0.40;;;0.40;;
3747;SDS011;1889;50.058;8.688;2022-09-27T01:32:13;0.50;;;0.50;;
3747;SDS011;1889;50.058;8.688;2022-09-27T01:34:59;3.27;;;0.53;;
3747;SDS011;1889;50.058;8.688;2022-09-27T01:38:08;0.50;;;0.50;;
3747;SDS011;1889;50.058;8.688;2022-09-27T01:45:36;0.60;;;0.60;;
3747;SDS011;1889;50.058;8.688;2022-09-27T01:48:11;1.30;;;0.55;;
3747;SDS011;1889;50.058;8.688;2022-09-27T01:50:48;0.40;;;0.40;;
3747;SDS011;1889;50.058;8.688;2022-09-27T01:53:19;0.62;;;0.57;;
3747;SDS011;1889;50.058;8.688;2022-09-27T01:55:52;0.50;;;0.50;;
3747;SDS011;1889;50.058;8.688;2022-09-27T01:58:40;0.60;;;0.60;;
3747;SDS011;1889;50.058;8.688;2022-09-27T02:01:27;0.47;;;0.47;;
3747;SDS011;1889;50.058;8.688;2022-09-27T02:03:59;1.40;;;0.62;;
3747;SDS011;1889;50.058;8.688;2022-09-27T02:06:32;0.47;;;0.47;;
3747;SDS011;1889;50.058;8.688;2022-09-27T02:09:08;1.30;;;0.60;;
3747;SDS011;1889;50.058;8.688;2022-09-27T02:11:56;0.80;;;0.62;;
3747;SDS011;1889;50.058;8.688;2022-09-27T02:14:30;1.00;;;0.80;;
3747;SDS011;1889;50.058;8.688;2022-09-27T02:17:03;0.70;;;0.70;;
3747;SDS011;1889;50.058;8.688;2022-09-27T02:19:55;0.50;;;0.50;;
3747;SDS011;1889;50.058;8.688;2022-09-27T02:22:44;1.42;;;0.62;;
3747;SDS011;1889;50.058;8.688;2022-09-27T02:30:46;0.40;;;0.40;;
3747;SDS011;1889;50.058;8.688;2022-09-27T02:33:17;2.75;;;1.07;;
3747;SDS011;1889;50.058;8.688;2022-09-27T02:35:53;1.10;;;0.47;;
3747;SDS011;1889;50.058;8.688;2022-09-27T02:38:23;0.55;;;0.55;;
3747;SDS011;1889;50.058;8.688;2022-09-27T02:40:53;2.05;;;0.57;;
3747;SDS011;1889;50.058;8.688;2022-09-27T02:43:23;0.85;;;0.70;;
3747;SDS011;1889;50.058;8.688;2022-09-27T02:46:05;0.50;;;0.50;;
3747;SDS011;1889;50.058;8.688;2022-09-27T02:48:56;0.45;;;0.45;;
3747;SDS011;1889;50.058;8.688;2022-09-27T02:51:33;0.93;;;0.60;;
3747;SDS011;1889;50.058;8.688;2022-09-27T02:56:56;0.50;;;0.50;;
3747;SDS011;1889;50.058;8.688;2022-09-27T02:59:34;0.98;;;0.60;;
3747;SDS011;1889;50.058;8.688;2022-09-27T03:02:05;1.27;;;0.60;;
3747;SDS011;1889;50.058;8.688;2022-09-27T03:07:12;0.78;;;0.78;;
3747;SDS011;1889;50.058;8.688;2022-09-27T03:09:46;1.15;;;0.75;;
3747;SDS011;1889;50.058;8.688;2022-09-27T03:12:17;1.82;;;0.60;;
3747;SDS011;1889;50.058;8.688;2022-09-27T03:14:49;1.47;;;0.60;;
3747;SDS011;1889;50.058;8.688;2022-09-27T03:17:23;1.42;;;0.70;;
3747;SDS011;1889;50.058;8.688;2022-09-27T03:19:52;2.02;;;0.80;;
3747;SDS011;1889;50.058;8.688;2022-09-27T03:22:22;0.62;;;0.62;;
3747;SDS011;1889;50.058;8.688;2022-09-27T03:24:51;1.07;;;0.60;;
3747;SDS011;1889;50.058;8.688;2022-09-27T03:27:20;1.10;;;1.00;;
3747;SDS011;1889;50.058;8.688;2022-09-27T03:29:50;1.80;;;0.65;;
3747;SDS011;1889;50.058;8.688;2022-09-27T03:32:19;2.00;;;0.88;;
3747;SDS011;1889;50.058;8.688;2022-09-27T03:34:48;0.60;;;0.60;;
3747;SDS011;1889;50.058;8.688;2022-09-27T03:37:17;0.85;;;0.70;;
3747;SDS011;1889;50.058;8.688;2022-09-27T03:39:47;0.68;;;0.68;;
3747;SDS011;1889;50.058;8.688;2022-09-27T03:42:16;1.37;;;0.88;;
3747;SDS011;1889;50.058;8.688;2022-09-27T03:44:45;0.80;;;0.68;;
3747;SDS011;1889;50.058;8.688;2022-09-27T03:47:15;1.98;;;0.78;;
3747;SDS011;1889;50.058;8.688;2022-09-27T03:49:44;1.65;;;0.60;;
3747;SDS011;1889;50.058;8.688;2022-09-27T03:52:13;0.80;;;0.60;;
3747;SDS011;1889;50.058;8.688;2022-09-27T03:54:44;0.93;;;0.93;;
3747;SDS011;1889;50.058;8.688;2022-09-27T03:57:14;0.60;;;0.60;;
3747;SDS011;1889;50.058;8.688;2022-09-27T03:59:44;0.53;;;0.45;;
3747;SDS011;1889;50.058;8.688;2022-09-27T04:02:13;0.55;;;0.45;;
3747;SDS011;1889;50.058;8.688;2022-09-27T04:04:43;1.22;;;0.60;;
3747;SDS011;1889;50.058;8.688;2022-09-27T04:07:12;0.47;;;0.40;;
3747;SDS011;1889;50.058;8.688;2022-09-27T04:09:42;0.80;;;0.60;;
3747;SDS011;1889;50.058;8.688;2022-09-27T04:12:13;0.45;;;0.45;;
3747;SDS011;1889;50.058;8.688;2022-09-27T04:14:44;1.25;;;0.70;;
3747;SDS011;1889;50.058;8.688;2022-09-27T04:17:13;0.40;;;0.40;;
3747;SDS011;1889;50.058;8.688;2022-09-27T04:19:43;1.40;;;0.30;;
3747;SDS011;1889;50.058;8.688;2022-09-27T04:22:12;0.53;;;0.53;;
3747;SDS011;1889;50.058;8.688;2022-09-27T04:24:42;0.53;;;0.42;;
3747;SDS011;1889;50.058;8.688;2022-09-27T04:27:11;0.40;;;0.40;;
3747;SDS011;1889;50.058;8.688;2022-09-27T04:29:40;0.40;;;0.30;;
3747;SDS011;1889;50.058;8.688;2022-09-27T04:32:12;2.02;;;0.60;;
3747;SDS011;1889;50.058;8.688;2022-09-27T04:34:41;1.60;;;0.30;;
3747;SDS011;1889;50.058;8.688;2022-09-27T04:37:28;0.70;;;0.30;;
3747;SDS011;1889;50.058;8.688;2022-09-27T04:39:57;0.23;;;0.23;;
3747;SDS011;1889;50.058;8.688;2022-09-27T04:42:27;0.23;;;0.23;;
3747;SDS011;1889;50.058;8.688;2022-09-27T04:44:58;0.30;;;0.30;;
3747;SDS011;1889;50.058;8.688;2022-09-27T04:47:27;0.42;;;0.33;;
3747;SDS011;1889;50.058;8.688;2022-09-27T04:49:56;1.32;;;0.57;;
3747;SDS011;1889;50.058;8.688;2022-09-27T04:52:26;0.40;;;0.40;;
3747;SDS011;1889;50.058;8.688;2022-09-27T04:54:55;0.40;;;0.30;;
3747;SDS011;1889;50.058;8.688;2022-09-27T04:57:24;1.05;;;0.30;;
3747;SDS011;1889;50.058;8.688;2022-09-27T04:59:54;0.40;;;0.40;;
3747;SDS011;1889;50.058;8.688;2022-09-27T05:02:25;0.30;;;0.30;;
3747;SDS011;1889;50.058;8.688;2022-09-27T05:04:55;1.17;;;0.30;;
3747;SDS011;1889;50.058;8.688;2022-09-27T05:07:26;0.20;;;0.20;;
3747;SDS011;1889;50.058;8.688;2022-09-27T05:09:55;0.40;;;0.30;;
3747;SDS011;1889;50.058;8.688;2022-09-27T05:12:25;0.20;;;0.20;;
3747;SDS011;1889;50.058;8.688;2022-09-27T05:14:54;0.45;;;0.40;;
3747;SDS011;1889;50.058;8.688;2022-09-27T05:17:24;0.30;;;0.30;;
3747;SDS011;1889;50.058;8.688;2022-09-27T05:19:53;0.37;;;0.37;;
3747;SDS011;1889;50.058;8.688;2022-09-27T05:22:22;0.25;;;0.25;;
3747;SDS011;1889;50.058;8.688;2022-09-27T05:24:52;0.65;;;0.40;;
3747;SDS011;1889;50.058;8.688;2022-09-27T05:27:21;0.53;;;0.33;;
3747;SDS011;1889;50.058;8.688;2022-09-27T05:29:51;0.78;;;0.50;;
3747;SDS011;1889;50.058;8.688;2022-09-27T05:32:21;0.30;;;0.30;;
3747;SDS011;1889;50.058;8.688;2022-09-27T05:34:50;0.37;;;0.37;;
3747;SDS011;1889;50.058;8.688;2022-09-27T05:37:20;1.82;;;0.60;;
3747;SDS011;1889;50.058;8.688;2022-09-27T05:39:50;0.20;;;0.20;;
3747;SDS011;1889;50.058;8.688;2022-09-27T05:42:20;0.30;;;0.30;;
3747;SDS011;1889;50.058;8.688;2022-09-27T05:44:49;0.40;;;0.40;;
3747;SDS011;1889;50.058;8.688;2022-09-27T05:47:19;2.42;;;0.42;;
3747;SDS011;1889;50.058;8.688;2022-09-27T05:49:49;0.40;;;0.40;;
3747;SDS011;1889;50.058;8.688;2022-09-27T05:52:21;0.50;;;0.40;;
3747;SDS011;1889;50.058;8.688;2022-09-27T05:54:51;0.30;;;0.30;;
3747;SDS011;1889;50.058;8.688;2022-09-27T05:57:20;0.98;;;0.30;;
3747;SDS011;1889;50.058;8.688;2022-09-27T05:59:50;0.53;;;0.40;;
3747;SDS011;1889;50.058;8.688;2022-09-27T06:02:19;0.60;;;0.40;;
3747;SDS011;1889;50.058;8.688;2022-09-27T06:04:48;0.40;;;0.40;;
3747;SDS011;1889;50.058;8.688;2022-09-27T06:07:21;0.40;;;0.40;;
3747;SDS011;1889;50.058;8.688;2022-09-27T06:09:50;0.82;;;0.30;;
3747;SDS011;1889;50.058;8.688;2022-09-27T06:12:19;0.30;;;0.30;;
3747;SDS011;1889;50.058;8.688;2022-09-27T06:14:49;0.50;;;0.30;;
3747;SDS011;1889;50.058;8.688;2022-09-27T06:17:18;0.53;;;0.50;;
3747;SDS011;1889;50.058;8.688;2022-09-27T06:19:48;0.20;;;0.20;;
3747;SDS011;1889;50.058;8.688;2022-09-27T06:22:17;0.30;;;0.30;;
3747;SDS011;1889;50.058;8.688;2022-09-27T06:24:47;0.30;;;0.30;;
3747;SDS011;1889;50.058;8.688;2022-09-27T06:27:17;0.50;;;0.50;;
3747;SDS011;1889;50.058;8.688;2022-09-27T06:29:46;0.40;;;0.40;;
3747;SDS011;1889;50.058;8.688;2022-09-27T06:32:15;0.42;;;0.30;;
3747;SDS011;1889;50.058;8.688;2022-09-27T06:34:45;0.40;;;0.40;;
3747;SDS011;1889;50.058;8.688;2022-09-27T06:37:14;1.02;;;0.50;;
3747;SDS011;1889;50.058;8.688;2022-09-27T06:39:43;0.62;;;0.50;;
3747;SDS011;1889;50.058;8.688;2022-09-27T06:42:14;0.50;;;0.50;;
3747;SDS011;1889;50.058;8.688;2022-09-27T06:44:44;0.45;;;0.45;;
3747;SDS011;1889;50.058;8.688;2022-09-27T06:47:16;0.60;;;0.60;;
3747;SDS011;1889;50.058;8.688;2022-09-27T06:49:45;0.50;;;0.50;;
3747;SDS011;1889;50.058;8.688;2022-09-27T06:52:15;0.70;;;0.70;;
3747;SDS011;1889;50.058;8.688;2022-09-27T06:54:45;0.70;;;0.70;;
3747;SDS011;1889;50.058;8.688;2022-09-27T06:57:14;0.75;;;0.60;;
3747;SDS011;1889;50.058;8.688;2022-09-27T06:59:45;0.78;;;0.65;;
3747;SDS011;1889;50.058;8.688;2022-09-27T07:02:32;0.90;;;0.55;;
3747;SDS011;1889;50.058;8.688;2022-09-27T07:05:01;0.45;;;0.45;;
3747;SDS011;1889;50.058;8.688;2022-09-27T07:07:33;0.60;;;0.60;;
3747;SDS011;1889;50.058;8.688;2022-09-27T07:10:02;0.40;;;0.40;;
3747;SDS011;1889;50.058;8.688;2022-09-27T07:12:33;1.60;;;0.60;;
3747;SDS011;1889;50.058;8.688;2022-09-27T07:15:03;0.98;;;0.57;;
3747;SDS011;1889;50.058;8.688;2022-09-27T07:17:33;0.70;;;0.70;;
3747;SDS011;1889;50.058;8.688;2022-09-27T07:20:03;0.60;;;0.60;;
3747;SDS011;1889;50.058;8.688;2022-09-27T07:22:45;0.30;;;0.30;;
3747;SDS011;1889;50.058;8.688;2022-09-27T07:25:11;0.68;;;0.47;;
3747;SDS011;1889;50.058;8.688;2022-09-27T07:27:41;0.30;;;0.30;;
3747;SDS011;1889;50.058;8.688;2022-09-27T07:30:10;0.85;;;0.47;;
3747;SDS011;1889;50.058;8.688;2022-09-27T07:32:40;0.30;;;0.30;;
3747;SDS011;1889;50.058;8.688;2022-09-27T07:35:15;0.40;;;0.40;;
3747;SDS011;1889;50.058;8.688;2022-09-27T07:37:42;0.40;;;0.40;;
3747;SDS011;1889;50.058;8.688;2022-09-27T07:40:12;0.40;;;0.40;;
3747;SDS011;1889;50.058;8.688;2022-09-27T07:42:41;1.15;;;0.40;;
3747;SDS011;1889;50.058;8.688;2022-09-27T07:45:12;0.50;;;0.50;;
3747;SDS011;1889;50.058;8.688;2022-09-27T07:47:42;0.37;;;0.33;;
3747;SDS011;1889;50.058;8.688;2022-09-27T07:50:11;0.62;;;0.60;;
3747;SDS011;1889;50.058;8.688;2022-09-27T07:52:41;0.40;;;0.40;;
3747;SDS011;1889;50.058;8.688;2022-09-27T07:55:12;0.30;;;0.30;;
3747;SDS011;1889;50.058;8.688;2022-09-27T07:57:42;0.85;;;0.40;;
3747;SDS011;1889;50.058;8.688;2022-09-27T08:00:13;0.40;;;0.40;;
3747;SDS011;1889;50.058;8.688;2022-09-27T08:02:43;0.50;;;0.50;;
3747;SDS011;1889;50.058;8.688;2022-09-27T08:05:15;0.50;;;0.50;;
3747;SDS011;1889;50.058;8.688;2022-09-27T08:07:44;0.57;;;0.50;;
3747;SDS011;1889;50.058;8.688;2022-09-27T08:10:13;0.40;;;0.40;;
3747;SDS011;1889;50.058;8.688;2022-09-27T08:12:43;1.12;;;0.50;;
3747;SDS011;1889;50.058;8.688;2022-09-27T08:15:12;0.70;;;0.50;;
3747;SDS011;1889;50.058;8.688;2022-09-27T08:17:42;0.33;;;0.33;;
3747;SDS011;1889;50.058;8.688;2022-09-27T08:20:11;2.08;;;0.40;;
3747;SDS011;1889;50.058;8.688;2022-09-27T08:22:43;0.40;;;0.40;;
3747;SDS011;1889;50.058;8.688;2022-09-27T08:25:12;0.65;;;0.40;;
3747;SDS011;1889;50.058;8.688;2022-09-27T08:27:42;1.10;;;0.50;;
3747;SDS011;1889;50.058;8.688;2022-09-27T08:30:11;0.40;;;0.40;;
3747;SDS011;1889;50.058;8.688;2022-09-27T08:32:40;0.72;;;0.72;;
3747;SDS011;1889;50.058;8.688;2022-09-27T08:35:10;2.27;;;1.35;;
3747;SDS011;1889;50.058;8.688;2022-09-27T08:37:41;0.85;;;0.60;;
3747;SDS011;1889;50.058;8.688;2022-09-27T08:40:12;0.40;;;0.40;;
3747;SDS011;1889;50.058;8.688;2022-09-27T08:42:48;0.40;;;0.40;;
3747;SDS011;1889;50.058;8.688;2022-09-27T08:45:27;0.40;;;0.30;;
3747;SDS011;1889;50.058;8.688;2022-09-27T08:48:02;0.65;;;0.65;;
3747;SDS011;1889;50.058;8.688;2022-09-27T08:50:39;0.40;;;0.40;;
3747;SDS011;1889;50.058;8.688;2022-09-27T08:55:44;1.55;;;0.40;;
3747;SDS011;1889;50.058;8.688;2022-09-27T08:58:34;2.02;;;0.40;;
3747;SDS011;1889;50.058;8.688;2022-09-27T09:01:09;0.68;;;0.47;;
3747;SDS011;1889;50.058;8.688;2022-09-27T09:03:49;0.30;;;0.30;;
3747;SDS011;1889;50.058;8.688;2022-09-27T09:17:53;0.50;;;0.50;;
3747;SDS011;1889;50.058;8.688;2022-09-27T09:25:57;0.50;;;0.50;;
3747;SDS011;1889;50.058;8.688;2022-09-27T09:28:38;0.30;;;0.30;;
3747;SDS011;1889;50.058;8.688;2022-09-27T09:31:33;0.45;;;0.45;;
3747;SDS011;1889;50.058;8.688;2022-09-27T09:37:08;0.40;;;0.40;;
3747;SDS011;1889;50.058;8.688;2022-09-27T09:39:41;0.70;;;0.40;;
3747;SDS011;1889;50.058;8.688;2022-09-27T09:45:21;0.40;;;0.40;;
3747;SDS011;1889;50.058;8.688;2022-09-27T09:47:30;0.57;;;0.57;;
3747;SDS011;1889;50.058;8.688;2022-09-27T09:52:56;0.37;;;0.37;;
3747;SDS011;1889;50.058;8.688;2022-09-27T09:55:28;0.53;;;0.42;;
3747;SDS011;1889;50.058;8.688;2022-09-27T09:58:12;0.40;;;0.40;;
3747;SDS011;1889;50.058;8.688;2022-09-27T10:00:41;0.60;;;0.40;;
3747;SDS011;1889;50.058;8.688;2022-09-27T10:03:12;0.93;;;0.50;;
3747;SDS011;1889;50.058;8.688;2022-09-27T10:05:42;0.90;;;0.47;;
3747;SDS011;1889;50.058;8.688;2022-09-27T10:08:21;1.27;;;0.45;;
3747;SDS011;1889;50.058;8.688;2022-09-27T10:10:53;0.55;;;0.40;;
3747;SDS011;1889;50.058;8.688;2022-09-27T10:13:22;0.42;;;0.20;;
3747;SDS011;1889;50.058;8.688;2022-09-27T10:16:11;0.35;;;0.28;;
3747;SDS011;1889;50.058;8.688;2022-09-27T10:18:29;0.20;;;0.20;;
3747;SDS011;1889;50.058;8.688;2022-09-27T10:21:00;0.23;;;0.23;;
3747;SDS011;1889;50.058;8.688;2022-09-27T10:23:31;0.23;;;0.23;;
3747;SDS011;1889;50.058;8.688;2022-09-27T10:26:01;0.40;;;0.40;;
3747;SDS011;1889;50.058;8.688;2022-09-27T10:28:36;0.60;;;0.50;;
3747;SDS011;1889;50.058;8.688;2022-09-27T10:31:10;0.30;;;0.30;;
3747;SDS011;1889;50.058;8.688;2022-09-27T10:33:56;2.47;;;0.60;;
3747;SDS011;1889;50.058;8.688;2022-09-27T10:36:32;1.52;;;1.42;;
3747;SDS011;1889;50.058;8.688;2022-09-27T10:39:05;0.53;;;0.30;;
3747;SDS011;1889;50.058;8.688;2022-09-27T10:41:37;0.75;;;0.20;;
3747;SDS011;1889;50.058;8.688;2022-09-27T10:44:18;0.33;;;0.33;;
3747;SDS011;1889;50.058;8.688;2022-09-27T10:46:47;0.30;;;0.30;;
3747;SDS011;1889;50.058;8.688;2022-09-27T10:49:26;0.20;;;0.20;;
3747;SDS011;1889;50.058;8.688;2022-09-27T10:52:01;0.30;;;0.30;;
3747;SDS011;1889;50.058;8.688;2022-09-27T10:54:38;0.20;;;0.20;;
3747;SDS011;1889;50.058;8.688;2022-09-27T10:59:50;0.10;;;0.10;;
3747;SDS011;1889;50.058;8.688;2022-09-27T11:02:25;0.40;;;0.40;;
3747;SDS011;1889;50.058;8.688;2022-09-27T11:07:54;0.20;;;0.20;;
3747;SDS011;1889;50.058;8.688;2022-09-27T11:10:26;0.40;;;0.40;;
3747;SDS011;1889;50.058;8.688;2022-09-27T11:13:11;0.37;;;0.37;;
3747;SDS011;1889;50.058;8.688;2022-09-27T11:15:57;0.30;;;0.30;;
3747;SDS011;1889;50.058;8.688;2022-09-27T11:21:18;0.30;;;0.30;;
3747;SDS011;1889;50.058;8.688;2022-09-27T11:24:05;0.30;;;0.30;;
3747;SDS011;1889;50.058;8.688;2022-09-27T11:32:22;0.50;;;0.50;;
3747;SDS011;1889;50.058;8.688;2022-09-27T11:35:09;0.20;;;0.20;;
3747;SDS011;1889;50.058;8.688;2022-09-27T11:38:01;0.47;;;0.45;;
3747;SDS011;1889;50.058;8.688;2022-09-27T11:43:33;0.68;;;0.50;;
3747;SDS011;1889;50.058;8.688;2022-09-27T11:46:10;0.60;;;0.42;;
3747;SDS011;1889;50.058;8.688;2022-09-27T11:48:53;0.60;;;0.60;;
3747;SDS011;1889;50.058;8.688;2022-09-27T11:57:30;2.05;;;0.40;;
3747;SDS011;1889;50.058;8.688;2022-09-27T12:00:19;1.05;;;0.50;;
3747;SDS011;1889;50.058;8.688;2022-09-27T12:03:06;0.78;;;0.42;;
3747;SDS011;1889;50.058;8.688;2022-09-27T12:05:59;0.30;;;0.30;;
3747;SDS011;1889;50.058;8.688;2022-09-27T12:11:39;0.40;;;0.40;;
3747;SDS011;1889;50.058;8.688;2022-09-27T12:14:15;0.57;;;0.40;;
3747;SDS011;1889;50.058;8.688;2022-09-27T12:16:43;0.28;;;0.28;;
3747;SDS011;1889;50.058;8.688;2022-09-27T12:19:23;3.20;;;0.40;;
3747;SDS011;1889;50.058;8.688;2022-09-27T12:21:48;0.50;;;0.50;;
3747;SDS011;1889;50.058;8.688;2022-09-27T12:24:19;0.50;;;0.50;;
3747;SDS011;1889;50.058;8.688;2022-09-27T12:26:51;0.50;;;0.50;;
3747;SDS011;1889;50.058;8.688;2022-09-27T12:29:26;0.60;;;0.60;;
3747;SDS011;1889;50.058;8.688;2022-09-27T12:32:10;0.93;;;0.50;;
3747;SDS011;1889;50.058;8.688;2022-09-27T12:42:33;0.40;;;0.40;;
3747;SDS011;1889;50.058;8.688;2022-09-27T12:45:36;0.40;;;0.40;;
3747;SDS011;1889;50.058;8.688;2022-09-27T12:48:08;0.50;;;0.50;;
3747;SDS011;1889;50.058;8.688;2022-09-27T12:50:49;0.55;;;0.55;;
3747;SDS011;1889;50.058;8.688;2022-09-27T12:53:24;0.42;;;0.40;;
3747;SDS011;1889;50.058;8.688;2022-09-27T12:55:54;0.85;;;0.50;;
3747;SDS011;1889;50.058;8.688;2022-09-27T12:58:53;1.45;;;0.53;;
3747;SDS011;1889;50.058;8.688;2022-09-27T13:01:31;1.67;;;0.68;;
3747;SDS011;1889;50.058;8.688;2022-09-27T13:04:23;0.88;;;0.70;;
3747;SDS011;1889;50.058;8.688;2022-09-27T13:07:41;0.80;;;0.50;;
3747;SDS011;1889;50.058;8.688;2022-09-27T13:09:47;1.20;;;0.50;;
3747;SDS011;1889;50.058;8.688;2022-09-27T13:12:31;2.27;;;0.80;;
3747;SDS011;1889;50.058;8.688;2022-09-27T13:15:02;0.35;;;0.35;;
3747;SDS011;1889;50.058;8.688;2022-09-27T13:23:02;0.45;;;0.45;;
3747;SDS011;1889;50.058;8.688;2022-09-27T13:25:46;0.60;;;0.60;;
3747;SDS011;1889;50.058;8.688;2022-09-27T13:31:11;0.82;;;0.70;;
3747;SDS011;1889;50.058;8.688;2022-09-27T13:33:48;0.50;;;0.50;;
3747;SDS011;1889;50.058;8.688;2022-09-27T13:36:34;0.70;;;0.50;;
3747;SDS011;1889;50.058;8.688;2022-09-27T13:47:15;1.12;;;0.50;;
3747;SDS011;1889;50.058;8.688;2022-09-27T13:53:01;0.30;;;0.30;;
3747;SDS011;1889;50.058;8.688;2022-09-27T13:58:42;1.15;;;0.40;;
3747;SDS011;1889;50.058;8.688;2022-09-27T14:01:22;0.40;;;0.40;;
3747;SDS011;1889;50.058;8.688;2022-09-27T14:03:55;0.40;;;0.40;;
3747;SDS011;1889;50.058;8.688;2022-09-27T14:06:44;0.28;;;0.28;;
3747;SDS011;1889;50.058;8.688;2022-09-27T14:09:16;0.30;;;0.30;;
3747;SDS011;1889;50.058;8.688;2022-09-27T14:11:43;0.20;;;0.20;;
3747;SDS011;1889;50.058;8.688;2022-09-27T14:14:16;0.42;;;0.30;;
3747;SDS011;1889;50.058;8.688;2022-09-27T14:16:48;0.40;;;0.40;;
3747;SDS011;1889;50.058;8.688;2022-09-27T14:19:18;0.57;;;0.40;;
3747;SDS011;1889;50.058;8.688;2022-09-27T14:21:51;0.35;;;0.33;;
3747;SDS011;1889;50.058;8.688;2022-09-27T14:24:22;0.30;;;0.30;;
3747;SDS011;1889;50.058;8.688;2022-09-27T14:27:13;0.40;;;0.40;;
3747;SDS011;1889;50.058;8.688;2022-09-27T14:29:53;1.05;;;0.20;;
3747;SDS011;1889;50.058;8.688;2022-09-27T14:32:24;0.30;;;0.30;;
3747;SDS011;1889;50.058;8.688;2022-09-27T14:38:15;0.45;;;0.45;;
3747;SDS011;1889;50.058;8.688;2022-09-27T14:43:27;0.35;;;0.35;;
3747;SDS011;1889;50.058;8.688;2022-09-27T14:45:58;0.65;;;0.28;;
3747;SDS011;1889;50.058;8.688;2022-09-27T14:48:30;1.12;;;0.40;;
3747;SDS011;1889;50.058;8.688;2022-09-27T14:53:43;0.30;;;0.30;;
3747;SDS011;1889;50.058;8.688;2022-09-27T14:56:17;0.30;;;0.30;;
3747;SDS011;1889;50.058;8.688;2022-09-27T14:58:53;0.25;;;0.25;;
3747;SDS011;1889;50.058;8.688;2022-09-27T15:01:26;0.88;;;0.55;;
3747;SDS011;1889;50.058;8.688;2022-09-27T15:04:01;0.57;;;0.57;;
3747;SDS011;1889;50.058;8.688;2022-09-27T15:06:28;0.57;;;0.40;;
3747;SDS011;1889;50.058;8.688;2022-09-27T15:08:58;0.45;;;0.45;;
3747;SDS011;1889;50.058;8.688;2022-09-27T15:11:27;2.08;;;0.60;;
3747;SDS011;1889;50.058;8.688;2022-09-27T15:14:01;1.35;;;0.50;;
3747;SDS011;1889;50.058;8.688;2022-09-27T15:16:32;0.50;;;0.50;;
3747;SDS011;1889;50.058;8.688;2022-09-27T15:19:04;0.93;;;0.40;;
3747;SDS011;1889;50.058;8.688;2022-09-27T15:21:52;2.62;;;0.50;;
3747;SDS011;1889;50.058;8.688;2022-09-27T15:24:39;0.57;;;0.30;;
3747;SDS011;1889;50.058;8.688;2022-09-27T15:27:20;0.88;;;0.55;;
3747;SDS011;1889;50.058;8.688;2022-09-27T15:29:52;0.85;;;0.40;;
3747;SDS011;1889;50.058;8.688;2022-09-27T15:32:23;0.40;;;0.40;;
3747;SDS011;1889;50.058;8.688;2022-09-27T15:34:55;0.45;;;0.45;;
3747;SDS011;1889;50.058;8.688;2022-09-27T15:37:27;0.50;;;0.50;;
3747;SDS011;1889;50.058;8.688;2022-09-27T15:40:38;0.85;;;0.50;;
3747;SDS011;1889;50.058;8.688;2022-09-27T15:42:53;2.17;;;0.50;;
3747;SDS011;1889;50.058;8.688;2022-09-27T15:45:31;1.00;;;0.75;;
3747;SDS011;1889;50.058;8.688;2022-09-27T15:48:06;0.50;;;0.50;;
3747;SDS011;1889;50.058;8.688;2022-09-27T15:50:37;0.40;;;0.40;;
3747;SDS011;1889;50.058;8.688;2022-09-27T15:53:10;0.90;;;0.85;;
3747;SDS011;1889;50.058;8.688;2022-09-27T15:55:39;1.05;;;1.05;;
3747;SDS011;1889;50.058;8.688;2022-09-27T15:58:13;0.80;;;0.80;;
3747;SDS011;1889;50.058;8.688;2022-09-27T16:00:57;0.75;;;0.72;;
3747;SDS011;1889;50.058;8.688;2022-09-27T16:03:32;0.70;;;0.70;;
3747;SDS011;1889;50.058;8.688;2022-09-27T16:06:02;1.40;;;1.30;;
3747;SDS011;1889;50.058;8.688;2022-09-27T16:08:31;0.98;;;0.90;;
3747;SDS011;1889;50.058;8.688;2022-09-27T16:11:01;2.40;;;1.50;;
3747;SDS011;1889;50.058;8.688;2022-09-27T16:13:32;1.07;;;0.98;;
3747;SDS011;1889;50.058;8.688;2022-09-27T16:16:01;0.80;;;0.80;;
3747;SDS011;1889;50.058;8.688;2022-09-27T16:18:32;0.65;;;0.57;;
3747;SDS011;1889;50.058;8.688;2022-09-27T16:21:04;1.90;;;1.10;;
3747;SDS011;1889;50.058;8.688;2022-09-27T16:23:35;1.02;;;0.60;;
3747;SDS011;1889;50.058;8.688;2022-09-27T16:26:04;0.65;;;0.65;;
3747;SDS011;1889;50.058;8.688;2022-09-27T16:28:34;2.35;;;1.10;;
3747;SDS011;1889;50.058;8.688;2022-09-27T16:31:06;0.40;;;0.40;;
3747;SDS011;1889;50.058;8.688;2022-09-27T16:33:37;0.60;;;0.60;;
3747;SDS011;1889;50.058;8.688;2022-09-27T16:36:06;0.98;;;0.60;;
3747;SDS011;1889;50.058;8.688;2022-09-27T16:38:37;0.57;;;0.57;;
3747;SDS011;1889;50.058;8.688;2022-09-27T16:41:08;0.95;;;0.93;;
3747;SDS011;1889;50.058;8.688;2022-09-27T16:43:39;1.10;;;0.80;;
3747;SDS011;1889;50.058;8.688;2022-09-27T16:46:08;0.95;;;0.90;;
3747;SDS011;1889;50.058;8.688;2022-09-27T16:48:39;1.15;;;1.05;;
3747;SDS011;1889;50.058;8.688;2022-09-27T16:51:10;1.67;;;1.40;;
3747;SDS011;1889;50.058;8.688;2022-09-27T16:53:59;1.52;;;1.42;;
3747;SDS011;1889;50.058;8.688;2022-09-27T16:56:28;2.55;;;2.20;;
3747;SDS011;1889;50.058;8.688;2022-09-27T16:58:59;2.85;;;2.02;;
3747;SDS011;1889;50.058;8.688;2022-09-27T17:01:30;1.65;;;1.52;;
3747;SDS011;1889;50.058;8.688;2022-09-27T17:04:01;1.47;;;1.25;;
3747;SDS011;1889;50.058;8.688;2022-09-27T17:06:31;2.00;;;1.62;;
3747;SDS011;1889;50.058;8.688;2022-09-27T17:09:01;1.07;;;0.98;;
3747;SDS011;1889;50.058;8.688;2022-09-27T17:11:31;1.50;;;1.30;;
3747;SDS011;1889;50.058;8.688;2022-09-27T17:14:02;0.80;;;0.80;;
3747;SDS011;1889;50.058;8.688;2022-09-27T17:16:31;1.10;;;1.00;;
3747;SDS011;1889;50.058;8.688;2022-09-27T17:19:01;1.40;;;1.30;;
3747;SDS011;1889;50.058;8.688;2022-09-27T17:21:33;1.52;;;1.40;;
3747;SDS011;1889;50.058;8.688;2022-09-27T17:24:03;2.22;;;1.40;;
3747;SDS011;1889;50.058;8.688;2022-09-27T17:26:33;1.55;;;1.35;;
3747;SDS011;1889;50.058;8.688;2022-09-27T17:29:02;2.10;;;1.90;;
3747;SDS011;1889;50.058;8.688;2022-09-27T17:31:32;1.85;;;1.27;;
3747;SDS011;1889;50.058;8.688;2022-09-27T17:34:04;1.42;;;1.32;;
3747;SDS011;1889;50.058;8.688;2022-09-27T17:36:36;0.95;;;0.95;;
3747;SDS011;1889;50.058;8.688;2022-09-27T17:39:11;1.35;;;1.25;;
3747;SDS011;1889;50.058;8.688;2022-09-27T17:41:42;1.70;;;1.55;;
3747;SDS011;1889;50.058;8.688;2022-09-27T17:44:12;2.10;;;1.72;;
3747;SDS011;1889;50.058;8.688;2022-09-27T17:46:45;3.95;;;1.80;;
3747;SDS011;1889;50.058;8.688;2022-09-27T17:49:16;2.47;;;2.27;;
3747;SDS011;1889;50.058;8.688;2022-09-27T17:52:03;2.17;;;1.85;;
3747;SDS011;1889;50.058;8.688;2022-09-27T17:54:33;2.02;;;1.82;;